createdAt,value
2022-09-04T00:08:46.271Z,26.198
2022-09-04T00:23:48.720Z,25.732
2022-09-04T00:38:51.104Z,26.742
2022-09-04T00:53:53.450Z,27.467
2022-09-04T01:08:56.101Z,28.125
2022-09-04T01:23:58.957Z,31.346
2022-09-04T01:39:04.112Z,32.18
2022-09-04T01:54:06.471Z,30.05
2022-09-04T02:09:08.849Z,30.437
2022-09-04T02:24:11.124Z,30.67
2022-09-04T02:39:13.673Z,32.3
2022-09-04T02:54:16.006Z,37.863
2022-09-04T03:09:18.548Z,41.793
2022-09-04T03:24:20.802Z,39.632
2022-09-04T03:39:23.179Z,39.714
2022-09-04T03:54:25.486Z,39.296
2022-09-04T04:09:27.793Z,39.998
2022-09-04T04:24:30.186Z,43.109
2022-09-04T04:39:32.566Z,40.158
2022-09-04T04:54:34.970Z,43.324
2022-09-04T05:09:37.301Z,44.613
2022-09-04T05:24:39.667Z,51.426
2022-09-04T05:39:42.023Z,45.038
2022-09-04T05:54:44.582Z,43.564
2022-09-04T06:09:46.992Z,45.332
2022-09-04T06:24:49.314Z,46.28
2022-09-04T06:39:51.694Z,47.697
2022-09-04T06:54:54.049Z,46.96
2022-09-04T07:10:01.037Z,47.662
2022-09-04T07:25:03.770Z,46.049
2022-09-04T07:40:08.173Z,47.906
2022-09-04T07:55:10.960Z,48.032
2022-09-04T08:10:13.251Z,48.364
2022-09-04T08:25:15.632Z,51.468
2022-09-04T08:40:17.997Z,52.202
2022-09-04T08:55:20.420Z,51.182
2022-09-04T09:10:22.745Z,51.743
2022-09-04T09:25:25.078Z,50.566
2022-09-04T09:40:27.363Z,51.52
2022-09-04T09:55:29.695Z,52.849
2022-09-04T10:10:32.014Z,52.481
2022-09-04T10:25:34.496Z,52.666
2022-09-04T10:40:42.334Z,53.715
2022-09-04T10:55:46.238Z,53.866
2022-09-04T11:10:48.509Z,54.204
2022-09-04T11:25:51.069Z,53.796
2022-09-04T11:40:53.389Z,54.022
2022-09-04T11:55:55.662Z,56.187
2022-09-04T12:10:57.911Z,52.677
2022-09-04T12:26:00.432Z,55.802
2022-09-04T12:41:03.169Z,52.006
2022-09-04T12:56:05.511Z,52.476
2022-09-04T13:11:07.876Z,55.984
2022-09-04T13:26:10.222Z,53.336
2022-09-04T13:41:12.555Z,58.318
2022-09-04T13:56:14.929Z,57.402
2022-09-04T14:11:17.273Z,53.947
2022-09-04T14:26:19.809Z,51.708
2022-09-04T14:41:22.730Z,52.8
2022-09-04T14:56:25.170Z,51.023
2022-09-04T15:11:31.156Z,36.599
2022-09-04T15:26:33.881Z,45.099
2022-09-04T15:41:36.204Z,47.878
2022-09-04T15:56:38.510Z,49.117
2022-09-04T16:11:40.768Z,44.445
2022-09-04T16:26:43.107Z,45.722
2022-09-04T16:41:45.429Z,43.653
2022-09-04T16:56:47.799Z,43.767
2022-09-04T17:11:55.715Z,45.543
2022-09-04T17:29:16.881Z,42.909
2022-09-04T17:44:30.117Z,41.089
2022-09-04T17:59:33.848Z,38.707
2022-09-04T18:14:36.167Z,38.883
2022-09-04T18:33:14.061Z,36.307
2022-09-04T18:52:17.002Z,35.462
2022-09-04T19:07:19.315Z,35.251
2022-09-04T19:22:26.314Z,34.39
2022-09-04T19:39:08.616Z,32.644
2022-09-04T20:01:00.493Z,29.895
2022-09-04T20:16:02.899Z,29.869
2022-09-04T20:31:05.243Z,27.69
2022-09-04T20:52:44.231Z,27.597
2022-09-04T21:08:03.659Z,25.674
2022-09-04T21:23:05.986Z,23.968
2022-09-04T21:38:08.377Z,22.126
2022-09-04T21:53:13.777Z,21.654
2022-09-04T22:13:29.185Z,19.662
2022-09-04T22:28:47.241Z,20.211
2022-09-04T22:43:49.462Z,20.92
2022-09-04T22:58:51.674Z,21.512
2022-09-04T23:14:05.210Z,21.478
2022-09-04T23:29:08.868Z,21.562
2022-09-04T23:44:11.478Z,22.669
2022-09-04T23:59:16.763Z,23.065
